createdAt,value
2022-11-26T00:00:53.735Z,99194.97
2022-11-26T00:03:20.812Z,99200.19
2022-11-26T00:05:50.951Z,99206.28
2022-11-26T00:08:28.015Z,99203.66
2022-11-26T00:10:54.809Z,99203.66
2022-11-26T00:13:24.318Z,99210.63
2022-11-26T00:15:51.327Z,99215.84
2022-11-26T00:18:19.347Z,99212.38
2022-11-26T00:20:50.086Z,99220.22
2022-11-26T00:23:22.880Z,99225.47
2022-11-26T00:25:52.957Z,99216.72
2022-11-26T00:28:31.478Z,99221.97
2022-11-26T00:31:04.073Z,99222.00
2022-11-26T00:33:31.596Z,99224.63
2022-11-26T00:36:02.687Z,99229.84
2022-11-26T00:38:30.804Z,99236.81
2022-11-26T00:40:58.658Z,99241.16
2022-11-26T00:43:25.260Z,99240.25
2022-11-26T00:45:51.811Z,99242.88
2022-11-26T00:48:19.370Z,99249.00
2022-11-26T00:50:51.068Z,99247.25
2022-11-26T00:53:20.985Z,99247.25
2022-11-26T00:55:49.178Z,99252.50
2022-11-26T00:58:25.981Z,99261.19
2022-11-26T01:00:53.774Z,99259.44
2022-11-26T01:03:20.618Z,99250.75
2022-11-26T01:05:54.857Z,99252.47
2022-11-26T01:08:29.876Z,99254.22
2022-11-26T01:10:57.067Z,99262.91
2022-11-26T01:13:23.637Z,99256.78
2022-11-26T01:15:50.307Z,99264.69
2022-11-26T01:18:20.405Z,99253.38
2022-11-26T01:20:48.041Z,99268.13
2022-11-26T01:23:17.604Z,99271.69
2022-11-26T01:25:45.285Z,99273.38
2022-11-26T01:28:15.124Z,99279.50
2022-11-26T01:30:42.457Z,99280.41
2022-11-26T01:33:09.174Z,99284.72
2022-11-26T01:35:36.333Z,99289.94
2022-11-26T01:38:04.710Z,99289.03
2022-11-26T01:40:55.165Z,99285.59
2022-11-26T01:43:41.386Z,99289.06
2022-11-26T01:46:15.076Z,99294.25
2022-11-26T01:48:42.292Z,99289.91
2022-11-26T01:51:10.549Z,99291.66
2022-11-26T01:53:44.049Z,99295.16
2022-11-26T01:56:22.001Z,99290.78
2022-11-26T01:58:54.433Z,99297.75
2022-11-26T02:01:21.207Z,99305.59
2022-11-26T02:04:08.051Z,99308.22
2022-11-26T02:06:35.479Z,99313.47
2022-11-26T02:09:06.187Z,99319.56
2022-11-26T02:11:33.095Z,99316.03
2022-11-26T02:14:02.943Z,99317.78
2022-11-26T02:16:29.553Z,99311.69
2022-11-26T02:19:26.591Z,99321.28
2022-11-26T02:22:01.738Z,99332.66
2022-11-26T02:24:51.026Z,99327.44
2022-11-26T02:27:40.380Z,99326.56
2022-11-26T02:30:12.353Z,99334.38
2022-11-26T02:32:54.523Z,99340.50
2022-11-26T02:35:26.700Z,99339.59
2022-11-26T02:38:02.919Z,99343.97
2022-11-26T02:40:29.769Z,99351.81
2022-11-26T02:42:56.438Z,99353.53
2022-11-26T02:45:27.674Z,99350.91
2022-11-26T02:47:57.888Z,99360.50
2022-11-26T02:50:29.731Z,99357.00
2022-11-26T02:52:58.888Z,99364.03
2022-11-26T02:55:31.372Z,99359.63
2022-11-26T02:57:58.543Z,99363.09
2022-11-26T03:00:25.486Z,99366.59
2022-11-26T03:03:04.123Z,99367.41
2022-11-26T03:05:37.293Z,99371.78
2022-11-26T03:08:05.384Z,99380.53
2022-11-26T03:10:32.552Z,99386.63
2022-11-26T03:12:59.751Z,99383.19
2022-11-26T03:15:26.346Z,99386.63
2022-11-26T03:17:52.944Z,99385.75
2022-11-26T03:20:19.521Z,99395.34
2022-11-26T03:22:46.106Z,99402.31
2022-11-26T03:25:12.864Z,99404.03
2022-11-26T03:27:39.471Z,99400.50
2022-11-26T03:30:06.750Z,99390.94
2022-11-26T03:32:33.555Z,99410.97
2022-11-26T03:35:00.202Z,99411.84
2022-11-26T03:37:26.782Z,99414.44
2022-11-26T03:39:53.458Z,99409.25
2022-11-26T03:42:20.037Z,99422.28
2022-11-26T03:44:46.670Z,99431.88
2022-11-26T03:47:13.183Z,99431.88
2022-11-26T03:49:39.812Z,99430.13
2022-11-26T03:52:06.362Z,99431.06
2022-11-26T03:54:32.942Z,99424.94
2022-11-26T03:56:59.565Z,99429.25
2022-11-26T03:59:26.256Z,99431.03
2022-11-26T04:01:52.919Z,99431.84
2022-11-26T04:04:19.718Z,99440.56
2022-11-26T04:06:46.396Z,99444.06
2022-11-26T04:09:13.154Z,99442.38
2022-11-26T04:11:39.743Z,99440.63
2022-11-26T04:14:06.359Z,99430.19
2022-11-26T04:16:33.021Z,99439.72
2022-11-26T04:19:00.155Z,99448.41
2022-11-26T04:21:26.853Z,99449.22
2022-11-26T04:23:53.722Z,99452.78
2022-11-26T04:26:20.341Z,99456.25
2022-11-26T04:28:47.099Z,99458.75
2022-11-26T04:31:14.047Z,99457.88
2022-11-26T04:33:40.677Z,99472.66
2022-11-26T04:36:07.478Z,99471.81
2022-11-26T04:38:34.154Z,99474.44
2022-11-26T04:41:01.239Z,99477.03
2022-11-26T04:43:27.786Z,99478.84
2022-11-26T04:45:54.351Z,99490.16
2022-11-26T04:48:21.045Z,99496.31
2022-11-26T04:50:49.586Z,99500.59
2022-11-26T04:53:16.785Z,99506.69
2022-11-26T04:55:44.268Z,99511.06
2022-11-26T04:58:10.765Z,99503.28
2022-11-26T05:00:37.343Z,99515.47
2022-11-26T05:03:04.114Z,99511.94
2022-11-26T05:05:32.005Z,99507.66
2022-11-26T05:07:58.788Z,99524.16
2022-11-26T05:10:26.848Z,99514.59
2022-11-26T05:12:53.542Z,99506.78
2022-11-26T05:15:20.260Z,99517.22
2022-11-26T05:17:46.882Z,99516.28
2022-11-26T05:20:14.990Z,99511.06
2022-11-26T05:22:42.781Z,99525.78
2022-11-26T05:25:10.610Z,99520.63
2022-11-26T05:27:37.189Z,99526.72
2022-11-26T05:30:08.281Z,99526.66
2022-11-26T05:32:34.885Z,99539.72
2022-11-26T05:35:01.671Z,99543.19
2022-11-26T05:37:28.327Z,99544.97
2022-11-26T05:39:54.870Z,99541.56
2022-11-26T05:42:21.507Z,99543.25
2022-11-26T05:44:48.127Z,99558.00
2022-11-26T05:47:14.785Z,99553.63
2022-11-26T05:49:41.450Z,99561.47
2022-11-26T05:52:08.141Z,99558.88
2022-11-26T05:54:34.688Z,99567.59
2022-11-26T05:57:01.529Z,99567.56
2022-11-26T05:59:28.400Z,99572.81
2022-11-26T06:01:55.402Z,99566.72
2022-11-26T06:04:22.131Z,99567.63
2022-11-26T06:06:48.898Z,99566.81
2022-11-26T06:09:15.623Z,99562.50
2022-11-26T06:11:42.411Z,99570.25
2022-11-26T06:14:10.617Z,99564.13
2022-11-26T06:16:37.333Z,99569.31
2022-11-26T06:19:04.159Z,99578.84
2022-11-26T06:21:30.988Z,99573.53
2022-11-26T06:23:59.556Z,99583.78
2022-11-26T06:26:26.590Z,99579.38
2022-11-26T06:28:53.203Z,99592.41
2022-11-26T06:31:19.845Z,99579.28
2022-11-26T06:33:46.607Z,99581.78
2022-11-26T06:36:13.333Z,99584.25
2022-11-26T06:38:39.907Z,99588.63
2022-11-26T06:41:08.569Z,99581.50
2022-11-26T06:43:35.264Z,99585.78
2022-11-26T06:46:04.377Z,99596.09
2022-11-26T06:48:31.458Z,99596.09
2022-11-26T06:51:02.663Z,99601.19
2022-11-26T06:53:29.365Z,99604.56
2022-11-26T06:56:00.131Z,99613.16
2022-11-26T06:58:27.007Z,99618.25
2022-11-26T07:00:53.897Z,99612.91
2022-11-26T07:03:23.931Z,99619.84
2022-11-26T07:05:52.362Z,99613.75
2022-11-26T07:08:18.966Z,99612.25
2022-11-26T07:10:48.953Z,99614.84
2022-11-26T07:13:15.989Z,99610.44
2022-11-26T07:15:42.628Z,99614.75
2022-11-26T07:18:09.294Z,99618.44
2022-11-26T07:20:36.906Z,99618.44
2022-11-26T07:23:04.718Z,99618.50
2022-11-26T07:25:31.656Z,99620.19
2022-11-26T07:27:58.341Z,99617.63
2022-11-26T07:30:25.259Z,99627.16
2022-11-26T07:32:51.880Z,99634.03
2022-11-26T07:35:18.528Z,99630.44
2022-11-26T07:37:45.227Z,99633.88
2022-11-26T07:40:12.218Z,99632.16
2022-11-26T07:42:38.895Z,99636.59
2022-11-26T07:45:06.032Z,99647.00
2022-11-26T07:47:32.676Z,99637.38
2022-11-26T07:49:59.548Z,99646.13
2022-11-26T07:52:26.133Z,99652.25
2022-11-26T07:54:52.720Z,99648.06
2022-11-26T07:57:22.017Z,99668.13
2022-11-26T07:59:48.947Z,99660.53
2022-11-26T08:02:16.015Z,99664.13
2022-11-26T08:04:42.769Z,99660.56
2022-11-26T08:07:09.581Z,99669.41
2022-11-26T08:09:36.256Z,99673.84
2022-11-26T08:12:02.873Z,99670.38
2022-11-26T08:14:29.554Z,99672.38
2022-11-26T08:16:57.373Z,99676.72
2022-11-26T08:19:24.487Z,99676.84
2022-11-26T08:21:51.253Z,99687.34
2022-11-26T08:24:20.025Z,99684.06
2022-11-26T08:26:47.144Z,99693.75
2022-11-26T08:29:14.563Z,99696.56
2022-11-26T08:31:45.610Z,99707.19
2022-11-26T08:34:15.331Z,99704.59
2022-11-26T08:36:42.270Z,99718.69
2022-11-26T08:39:12.638Z,99709.25
2022-11-26T08:41:39.412Z,99719.63
2022-11-26T08:44:07.776Z,99717.97
2022-11-26T08:46:40.984Z,99721.53
2022-11-26T08:49:10.561Z,99729.53
2022-11-26T08:51:37.238Z,99733.09
2022-11-26T08:54:07.040Z,99740.13
2022-11-26T08:56:34.536Z,99740.94
2022-11-26T08:59:01.813Z,99742.69
2022-11-26T09:01:32.538Z,99740.19
2022-11-26T09:04:01.635Z,99738.38
2022-11-26T09:06:30.916Z,99742.66
2022-11-26T09:09:13.044Z,99741.75
2022-11-26T09:11:41.691Z,99747.78
2022-11-26T09:14:09.880Z,99749.50
2022-11-26T09:16:36.627Z,99746.84
2022-11-26T09:19:05.211Z,99742.47
2022-11-26T09:21:33.264Z,99743.31
2022-11-26T09:24:00.325Z,99746.81
2022-11-26T09:26:28.193Z,99741.56
2022-11-26T09:28:54.777Z,99749.50
2022-11-26T09:31:21.383Z,99743.41
2022-11-26T09:33:48.630Z,99754.75
2022-11-26T09:36:16.947Z,99761.72
2022-11-26T09:38:44.144Z,99749.56
2022-11-26T09:41:34.851Z,99755.97
2022-11-26T09:44:04.679Z,99758.59
2022-11-26T09:47:12.464Z,99750.69
2022-11-26T09:50:16.667Z,99751.72
2022-11-26T09:52:48.959Z,99762.19
2022-11-26T09:55:22.533Z,99755.41
2022-11-26T09:58:07.617Z,99750.34
2022-11-26T10:00:39.481Z,99753.94
2022-11-26T10:03:14.962Z,99755.75
2022-11-26T10:05:47.820Z,99751.41
2022-11-26T10:08:43.518Z,99744.41
2022-11-26T10:11:31.403Z,99748.78
2022-11-26T10:14:38.851Z,99750.63
2022-11-26T10:17:29.658Z,99736.66
2022-11-26T10:20:23.875Z,99739.28
2022-11-26T10:23:15.749Z,99748.06
2022-11-26T10:25:48.404Z,99732.31
2022-11-26T10:28:35.833Z,99727.91
2022-11-26T10:31:06.743Z,99728.81
2022-11-26T10:33:38.892Z,99728.81
2022-11-26T10:36:16.911Z,99729.69
2022-11-26T10:38:43.640Z,99735.81
2022-11-26T10:41:10.415Z,99736.66
2022-11-26T10:43:37.105Z,99729.66
2022-11-26T10:46:03.868Z,99729.69
2022-11-26T10:48:31.401Z,99729.69
2022-11-26T10:51:04.263Z,99719.19
2022-11-26T10:53:37.808Z,99720.91
2022-11-26T10:56:07.291Z,99722.69
2022-11-26T10:58:42.660Z,99733.16
2022-11-26T11:01:14.466Z,99732.28
2022-11-26T11:04:13.619Z,99732.28
2022-11-26T11:06:44.164Z,99728.78
2022-11-26T11:09:38.019Z,99741.88
2022-11-26T11:12:13.702Z,99733.16
2022-11-26T11:14:43.517Z,99739.28
2022-11-26T11:17:31.487Z,99738.41
2022-11-26T11:20:03.317Z,99734.00
2022-11-26T11:22:30.170Z,99728.78
2022-11-26T11:24:59.271Z,99727.03
2022-11-26T11:27:32.576Z,99732.25
2022-11-26T11:30:02.541Z,99728.78
2022-11-26T11:32:40.185Z,99736.63
2022-11-26T11:35:22.030Z,99726.19
2022-11-26T11:37:56.541Z,99722.66
2022-11-26T11:40:27.825Z,99738.41
2022-11-26T11:43:02.301Z,99729.69
2022-11-26T11:45:34.811Z,99728.78
2022-11-26T11:48:13.612Z,99726.16
2022-11-26T11:50:45.952Z,99725.28
2022-11-26T11:53:39.038Z,99736.69
2022-11-26T11:56:26.886Z,99736.66
2022-11-26T11:59:12.265Z,99743.66
2022-11-26T12:01:58.190Z,99737.56
2022-11-26T12:04:51.611Z,99739.31
2022-11-26T12:07:54.079Z,99734.06
2022-11-26T12:10:44.736Z,99734.03
2022-11-26T12:13:15.341Z,99729.66
2022-11-26T12:15:52.810Z,99734.03
2022-11-26T12:18:29.095Z,99732.25
2022-11-26T12:21:02.595Z,99736.66
2022-11-26T12:23:50.979Z,99745.41
2022-11-26T12:26:33.644Z,99741.91
2022-11-26T12:29:26.077Z,99738.38
2022-11-26T12:31:58.635Z,99748.03
2022-11-26T12:34:30.728Z,99741.94
2022-11-26T12:37:25.430Z,99754.19
2022-11-26T12:40:07.167Z,99745.44
2022-11-26T12:42:44.449Z,99739.31
2022-11-26T12:45:26.677Z,99738.41
2022-11-26T12:48:00.233Z,99741.91
2022-11-26T12:50:41.993Z,99748.91
2022-11-26T12:53:14.577Z,99749.78
2022-11-26T12:56:31.347Z,99748.94
2022-11-26T12:59:01.027Z,99761.16
2022-11-26T13:01:28.493Z,99765.53
2022-11-26T13:04:08.730Z,99761.16
2022-11-26T13:07:03.323Z,99765.50
2022-11-26T13:10:02.115Z,99763.72
2022-11-26T13:12:38.516Z,99765.38
2022-11-26T13:15:21.082Z,99768.78
2022-11-26T13:17:49.300Z,99771.38
2022-11-26T13:20:54.441Z,99780.00
2022-11-26T13:23:57.428Z,99781.72
2022-11-26T13:26:47.444Z,99786.00
2022-11-26T13:29:59.086Z,99781.72
2022-11-26T13:33:07.519Z,99777.31
2022-11-26T13:36:11.614Z,99787.69
2022-11-26T13:38:59.149Z,99778.78
2022-11-26T13:42:00.946Z,99781.41
2022-11-26T13:44:52.008Z,99777.91
2022-11-26T13:47:41.615Z,99775.31
2022-11-26T13:50:32.301Z,99768.31
2022-11-26T13:53:25.000Z,99770.06
2022-11-26T13:56:02.147Z,99767.50
2022-11-26T13:58:35.026Z,99768.38
2022-11-26T14:01:33.090Z,99766.56
2022-11-26T14:04:00.222Z,99765.56
2022-11-26T14:06:28.209Z,99764.66
2022-11-26T14:08:55.545Z,99770.81
2022-11-26T14:11:40.238Z,99777.72
2022-11-26T14:14:25.089Z,99778.66
2022-11-26T14:17:00.779Z,99778.66
2022-11-26T14:19:39.626Z,99771.56
2022-11-26T14:22:27.817Z,99775.91
2022-11-26T14:25:06.622Z,99782.81
2022-11-26T14:27:43.610Z,99781.06
2022-11-26T14:30:13.099Z,99785.28
2022-11-26T14:32:46.122Z,99784.47
2022-11-26T14:35:30.730Z,99777.41
2022-11-26T14:38:00.500Z,99789.53
2022-11-26T14:40:30.281Z,99785.88
2022-11-26T14:43:26.901Z,99797.09
2022-11-26T14:46:07.072Z,99805.72
2022-11-26T14:48:37.042Z,99799.63
2022-11-26T14:51:08.477Z,99807.38
2022-11-26T14:53:36.533Z,99809.06
2022-11-26T14:56:03.395Z,99808.13
2022-11-26T14:58:38.514Z,99815.88
2022-11-26T15:01:18.781Z,99827.94
2022-11-26T15:03:57.026Z,99811.44
2022-11-26T15:06:28.565Z,99813.22
2022-11-26T15:09:12.097Z,99819.25
2022-11-26T15:11:43.257Z,99823.56
2022-11-26T15:14:20.741Z,99818.44
2022-11-26T15:16:55.085Z,99833.94
2022-11-26T15:19:24.433Z,99829.56
2022-11-26T15:21:52.137Z,99830.44
2022-11-26T15:24:19.014Z,99835.69
2022-11-26T15:26:47.612Z,99837.38
2022-11-26T15:29:36.694Z,99835.56
2022-11-26T15:32:04.236Z,99839.06
2022-11-26T15:34:33.040Z,99834.66
2022-11-26T15:36:59.701Z,99826.00
2022-11-26T15:39:31.204Z,99829.56
2022-11-26T15:42:06.030Z,99826.06
2022-11-26T15:44:42.289Z,99821.69
2022-11-26T15:47:20.330Z,99820.78
2022-11-26T15:49:54.915Z,99823.38
2022-11-26T15:52:30.806Z,99822.50
2022-11-26T15:55:12.371Z,99826.81
2022-11-26T15:57:41.159Z,99828.53
2022-11-26T16:00:35.752Z,99819.75
2022-11-26T16:03:03.597Z,99818.78
2022-11-26T16:05:39.335Z,99821.34
2022-11-26T16:08:30.609Z,99818.50
2022-11-26T16:11:02.919Z,99820.19
2022-11-26T16:13:31.505Z,99815.00
2022-11-26T16:16:05.570Z,99821.03
2022-11-26T16:18:41.931Z,99826.19
2022-11-26T16:21:17.033Z,99820.06
2022-11-26T16:23:44.008Z,99824.41
2022-11-26T16:26:19.491Z,99816.53
2022-11-26T16:28:47.347Z,99819.84
2022-11-26T16:31:15.914Z,99824.13
2022-11-26T16:33:43.184Z,99831.00
2022-11-26T16:36:32.822Z,99825.81
2022-11-26T16:38:59.442Z,99833.59
2022-11-26T16:41:26.651Z,99834.47
2022-11-26T16:43:53.221Z,99821.41
2022-11-26T16:46:24.130Z,99823.19
2022-11-26T16:48:51.334Z,99819.63
2022-11-26T16:51:17.984Z,99833.50
2022-11-26T16:53:44.533Z,99837.78
2022-11-26T16:56:28.149Z,99834.16
2022-11-26T16:58:58.815Z,99833.19
2022-11-26T17:01:25.692Z,99827.00
2022-11-26T17:03:52.317Z,99831.31
2022-11-26T17:06:26.595Z,99834.88
2022-11-26T17:08:55.895Z,99838.16
2022-11-26T17:11:23.387Z,99834.75
2022-11-26T17:13:50.019Z,99838.81
2022-11-26T17:16:19.702Z,99842.25
2022-11-26T17:18:47.529Z,99838.66
2022-11-26T17:21:14.628Z,99838.50
2022-11-26T17:23:41.512Z,99852.25
2022-11-26T17:26:19.903Z,99843.75
2022-11-26T17:28:47.017Z,99851.53
2022-11-26T17:31:13.792Z,99859.34
2022-11-26T17:33:40.424Z,99856.72
2022-11-26T17:36:23.424Z,99868.63
2022-11-26T17:38:50.617Z,99860.91
2022-11-26T17:41:17.773Z,99863.47
2022-11-26T17:43:45.701Z,99867.75
2022-11-26T17:46:16.020Z,99866.69
2022-11-26T17:48:43.244Z,99862.25
2022-11-26T17:51:12.838Z,99869.09
2022-11-26T17:53:39.545Z,99858.50
2022-11-26T17:56:06.238Z,99860.94
2022-11-26T17:58:32.820Z,99862.47
2022-11-26T18:00:59.514Z,99869.97
2022-11-26T18:03:26.552Z,99863.72
2022-11-26T18:05:53.143Z,99864.34
2022-11-26T18:08:19.786Z,99862.53
2022-11-26T18:10:47.009Z,99864.19
2022-11-26T18:13:13.610Z,99865.22
2022-11-26T18:15:40.282Z,99859.09
2022-11-26T18:18:07.687Z,99864.31
2022-11-26T18:20:34.669Z,99848.66
2022-11-26T18:23:01.643Z,99853.13
2022-11-26T18:25:29.322Z,99848.88
2022-11-26T18:27:56.283Z,99847.88
2022-11-26T18:30:24.163Z,99836.38
2022-11-26T18:32:50.722Z,99841.41
2022-11-26T18:35:17.903Z,99843.88
2022-11-26T18:37:44.763Z,99841.34
2022-11-26T18:40:14.987Z,99833.44
2022-11-26T18:42:41.662Z,99838.84
2022-11-26T18:45:11.787Z,99837.84
2022-11-26T18:47:38.465Z,99837.69
2022-11-26T18:50:06.324Z,99840.31
2022-11-26T18:52:32.902Z,99835.19
2022-11-26T18:55:00.134Z,99834.03
2022-11-26T18:57:26.847Z,99828.50
2022-11-26T18:59:53.357Z,99830.19
2022-11-26T19:02:19.992Z,99826.56
2022-11-26T19:04:46.718Z,99824.13
2022-11-26T19:07:14.319Z,99821.53
2022-11-26T19:09:41.720Z,99819.78
2022-11-26T19:12:08.894Z,99818.97
2022-11-26T19:14:35.499Z,99814.66
2022-11-26T19:17:02.422Z,99815.41
2022-11-26T19:19:29.136Z,99819.63
2022-11-26T19:22:01.140Z,99809.00
2022-11-26T19:24:29.394Z,99809.97
2022-11-26T19:26:56.237Z,99815.97
2022-11-26T19:29:22.937Z,99816.09
2022-11-26T19:31:49.641Z,99819.63
2022-11-26T19:34:16.446Z,99816.34
2022-11-26T19:36:45.827Z,99811.97
2022-11-26T19:39:12.439Z,99818.94
2022-11-26T19:41:39.097Z,99820.56
2022-11-26T19:44:07.218Z,99815.25
2022-11-26T19:46:37.216Z,99819.50
2022-11-26T19:49:03.848Z,99819.34
2022-11-26T19:51:30.457Z,99821.03
2022-11-26T19:53:57.317Z,99818.44
2022-11-26T19:56:25.437Z,99819.34
2022-11-26T19:58:54.317Z,99817.47
2022-11-26T20:01:22.333Z,99820.19
2022-11-26T20:03:49.761Z,99823.56
2022-11-26T20:06:19.138Z,99822.47
2022-11-26T20:08:47.022Z,99822.38
2022-11-26T20:11:14.804Z,99822.22
2022-11-26T20:13:42.851Z,99823.06
2022-11-26T20:16:16.262Z,99831.50
2022-11-26T20:18:43.918Z,99823.56
2022-11-26T20:21:13.580Z,99826.03
2022-11-26T20:23:40.251Z,99821.47
2022-11-26T20:26:16.185Z,99824.00
2022-11-26T20:28:43.557Z,99820.44
2022-11-26T20:31:11.313Z,99814.78
2022-11-26T20:33:38.033Z,99808.13
2022-11-26T20:36:08.700Z,99809.88
2022-11-26T20:38:35.990Z,99808.06
2022-11-26T20:41:07.860Z,99806.38
2022-11-26T20:43:34.705Z,99802.47
2022-11-26T20:46:02.861Z,99806.00
2022-11-26T20:48:30.777Z,99815.50
2022-11-26T20:51:01.958Z,99800.94
2022-11-26T20:53:28.722Z,99795.78
2022-11-26T20:55:56.596Z,99795.72
2022-11-26T20:58:26.926Z,99798.84
2022-11-26T21:00:54.965Z,99793.56
2022-11-26T21:03:26.935Z,99802.72
2022-11-26T21:05:53.903Z,99804.38
2022-11-26T21:08:22.376Z,99794.66
2022-11-26T21:10:50.206Z,99799.59
2022-11-26T21:13:19.021Z,99793.47
2022-11-26T21:15:49.493Z,99792.13
2022-11-26T21:18:16.309Z,99791.81
2022-11-26T21:20:44.092Z,99783.00
2022-11-26T21:23:12.397Z,99781.25
2022-11-26T21:25:40.897Z,99776.78
2022-11-26T21:28:08.489Z,99781.63
2022-11-26T21:30:36.004Z,99770.38
2022-11-26T21:33:08.739Z,99780.56
2022-11-26T21:35:37.163Z,99766.50
2022-11-26T21:38:05.072Z,99774.28
2022-11-26T21:40:33.126Z,99777.06
2022-11-26T21:42:59.842Z,99775.19
2022-11-26T21:45:27.845Z,99768.16
2022-11-26T21:47:54.833Z,99766.41
2022-11-26T21:50:21.949Z,99775.88
2022-11-26T21:52:48.517Z,99775.78
2022-11-26T21:55:15.190Z,99779.94
2022-11-26T21:57:41.794Z,99780.69
2022-11-26T22:00:09.095Z,99781.41
2022-11-26T22:02:35.948Z,99779.59
2022-11-26T22:05:02.628Z,99785.72
2022-11-26T22:07:30.296Z,99787.50
2022-11-26T22:09:57.117Z,99796.91
2022-11-26T22:12:23.663Z,99792.53
2022-11-26T22:14:50.210Z,99794.97
2022-11-26T22:17:16.806Z,99800.16
2022-11-26T22:19:43.404Z,99809.41
2022-11-26T22:22:10.047Z,99805.25
2022-11-26T22:24:36.647Z,99810.16
2022-11-26T22:27:03.214Z,99801.25
2022-11-26T22:29:29.789Z,99800.97
2022-11-26T22:31:56.444Z,99807.28
2022-11-26T22:34:24.711Z,99813.38
2022-11-26T22:36:51.748Z,99803.84
2022-11-26T22:39:20.208Z,99816.75
2022-11-26T22:41:48.310Z,99814.34
2022-11-26T22:44:16.215Z,99818.88
2022-11-26T22:46:43.235Z,99816.94
2022-11-26T22:49:15.874Z,99814.34
2022-11-26T22:51:43.018Z,99821.28
2022-11-26T22:54:11.963Z,99811.59
2022-11-26T22:56:38.878Z,99810.72
2022-11-26T22:59:06.981Z,99802.44
2022-11-26T23:01:35.985Z,99784.88
2022-11-26T23:04:06.217Z,99788.75
2022-11-26T23:06:34.760Z,99797.88
2022-11-26T23:09:03.535Z,99794.28
2022-11-26T23:11:33.674Z,99798.75
2022-11-26T23:14:02.193Z,99799.38
2022-11-26T23:16:28.865Z,99791.75
2022-11-26T23:18:56.906Z,99788.28
2022-11-26T23:21:26.663Z,99784.78
2022-11-26T23:23:54.207Z,99777.19
2022-11-26T23:26:27.071Z,99764.41
2022-11-26T23:28:55.974Z,99771.13
2022-11-26T23:31:25.895Z,99763.41
2022-11-26T23:33:53.002Z,99759.22
2022-11-26T23:36:20.148Z,99755.72
2022-11-26T23:38:47.156Z,99749.84
2022-11-26T23:41:14.106Z,99746.03
2022-11-26T23:43:40.768Z,99740.06
2022-11-26T23:46:11.557Z,99747.22
2022-11-26T23:48:38.240Z,99738.72
2022-11-26T23:51:10.078Z,99741.31
2022-11-26T23:53:38.549Z,99742.16
2022-11-26T23:56:07.391Z,99734.44
2022-11-26T23:58:34.456Z,99733.72
